Time;durP1;ratioP1;P1;durP2;ratioP2;P2;SDS_P1;SDS_P2;PMS_P1;PMS_P2;Temp;Humidity;BMP_temperature;BMP_pressure;BME280_temperature;BME280_humidity;BME280_pressure;Samples;Min_cycle;Max_cycle;Signal;HPM_P1;HPM_P2
2023/12/27 00:02:53;;;;;;;;;;;;;;;13.28;49.09;98604.39;67628;1280;1016705;-70
2023/12/27 00:05:55;;;;;;;;;;;;;;;13.41;48.48;98618.91;67632;1280;1016466;-71
2023/12/27 00:08:58;;;;;;;;;;;;;;;13.47;48.57;98612.53;67652;1280;1018552;-66
2023/12/27 00:12:01;;;;;;;;;;;;;;;13.52;48.70;98601.42;67628;1280;1016927;-72
2023/12/27 00:15:03;;;;;;;;;;;;;;;13.52;48.48;98618.79;67626;1280;1016403;-71
2023/12/27 00:18:06;;;;;;;;;;;;;;;13.44;48.77;98623.24;67684;1280;1015846;-71
2023/12/27 00:21:09;;;;;;;;;;;;;;;13.46;48.88;98619.77;67645;1280;1016472;-73
2023/12/27 00:24:11;;;;;;;;;;;;;;;13.32;48.97;98624.14;67646;1280;1019439;-74
2023/12/27 00:27:14;;;;;;;;;;;;;;;13.30;49.08;98626.23;67643;1280;1016229;-74
2023/12/27 00:30:16;;;;;;;;;;;;;;;13.21;48.88;98633.60;67661;1280;1016279;-66
2023/12/27 00:33:20;;;;;;;;;;;;;;;13.17;49.21;98631.20;67647;1280;1016363;-69
2023/12/27 00:36:29;;;;;;;;;;;;;;;13.17;48.91;98637.02;67620;1280;1015860;-69
2023/12/27 00:39:31;;;;;;;;;;;;;;;13.29;48.50;98631.41;67589;1280;1016513;-74
2023/12/27 00:42:34;;;;;;;;;;;;;;;13.15;48.80;98643.97;67651;1280;1018655;-70
2023/12/27 00:45:36;;;;;;;;;;;;;;;13.21;48.67;98643.06;67634;1280;1016360;-65
2023/12/27 00:48:39;;;;;;;;;;;;;;;13.14;48.61;98664.44;67617;1280;1016424;-68
2023/12/27 00:51:41;;;;;;;;;;;;;;;13.05;48.79;98658.96;67612;1280;1018122;-70
2023/12/27 00:54:44;;;;;;;;;;;;;;;13.07;48.91;98670.25;67645;1280;1016123;-72
2023/12/27 00:57:46;;;;;;;;;;;;;;;13.17;48.59;98673.67;67640;1280;1016333;-72
2023/12/27 01:00:49;;;;;;;;;;;;;;;13.27;48.51;98674.23;67604;1280;1016424;-71
2023/12/27 01:03:52;;;;;;;;;;;;;;;13.25;49.04;98700.67;67645;1280;1016731;-73
2023/12/27 01:06:54;;;;;;;;;;;;;;;12.85;52.34;98766.20;67684;1280;1016548;-73
2023/12/27 01:09:57;;;;;;;;;;;;;;;12.14;58.46;98772.74;67653;1280;1016351;-74
2023/12/27 01:12:59;;;;;;;;;;;;;;;11.73;60.16;98794.39;67626;1280;1016192;-72
2023/12/27 01:16:02;;;;;;;;;;;;;;;11.51;62.92;98789.68;67650;1280;1016308;-71
2023/12/27 01:19:06;;;;;;;;;;;;;;;11.27;62.93;98777.59;67644;1280;1016762;-68
2023/12/27 01:22:08;;;;;;;;;;;;;;;11.15;63.23;98767.46;67626;1280;1016355;-67
2023/12/27 01:25:11;;;;;;;;;;;;;;;11.22;62.06;98768.77;67644;1280;1016469;-67
2023/12/27 01:28:14;;;;;;;;;;;;;;;11.05;63.33;98785.65;67618;1280;1016299;-69
2023/12/27 01:31:16;;;;;;;;;;;;;;;11.09;62.56;98785.15;67653;1280;1018049;-71
2023/12/27 01:34:19;;;;;;;;;;;;;;;11.04;63.29;98789.86;67647;1280;1016371;-71
2023/12/27 01:37:22;;;;;;;;;;;;;;;11.22;62.18;98792.77;67625;1280;1016327;-67
2023/12/27 01:40:24;;;;;;;;;;;;;;;11.24;62.43;98810.30;67588;1280;1016242;-70
2023/12/27 01:43:27;;;;;;;;;;;;;;;11.24;62.28;98819.61;67649;1280;1018208;-65
2023/12/27 01:46:30;;;;;;;;;;;;;;;11.14;63.11;98816.70;67639;1280;1018393;-71
2023/12/27 01:53:19;;;;;;;;;;;;;;;11.24;61.62;98822.92;67609;1280;1016339;-70
2023/12/27 01:56:22;;;;;;;;;;;;;;;11.09;61.77;98822.48;67626;1280;1016230;-70
2023/12/27 01:59:24;;;;;;;;;;;;;;;11.18;61.48;98811.91;67637;1280;1016124;-65
2023/12/27 02:02:27;;;;;;;;;;;;;;;11.04;61.03;98834.15;67624;1280;1016084;-71
2023/12/27 02:05:30;;;;;;;;;;;;;;;11.07;61.26;98848.83;67650;1280;1016346;-70
2023/12/27 02:12:11;;;;;;;;;;;;;;;11.01;60.37;98855.16;67624;1280;1016402;-69
2023/12/27 02:15:13;;;;;;;;;;;;;;;11.09;59.76;98842.58;67638;1280;1016467;-65
2023/12/27 02:18:16;;;;;;;;;;;;;;;10.91;60.06;98858.92;67639;1280;1016186;-69
2023/12/27 02:21:19;;;;;;;;;;;;;;;10.98;59.20;98840.84;67628;1280;1016426;-72
2023/12/27 02:24:21;;;;;;;;;;;;;;;10.87;59.18;98852.70;67662;1280;1016455;-62
2023/12/27 02:27:24;;;;;;;;;;;;;;;10.87;59.08;98855.52;67645;1280;1017992;-69
2023/12/27 02:30:26;;;;;;;;;;;;;;;10.93;58.60;98858.61;67661;1280;1016010;-65
2023/12/27 02:33:30;;;;;;;;;;;;;;;10.86;58.15;98863.92;67605;1280;1018393;-72
2023/12/27 02:36:32;;;;;;;;;;;;;;;10.91;57.66;98861.52;67651;1280;1016547;-68
2023/12/27 02:39:36;;;;;;;;;;;;;;;10.80;57.92;98863.42;67631;1280;1017171;-69
2023/12/27 02:42:39;;;;;;;;;;;;;;;10.65;58.37;98861.20;67617;1280;1016140;-66
2023/12/27 02:45:42;;;;;;;;;;;;;;;10.60;58.07;98863.60;67617;1280;1016406;-66
2023/12/27 02:48:45;;;;;;;;;;;;;;;10.72;57.61;98876.15;67658;1280;1016445;-73
2023/12/27 02:51:48;;;;;;;;;;;;;;;10.79;57.40;98869.10;67663;1280;1016068;-66
2023/12/27 02:54:50;;;;;;;;;;;;;;;10.62;57.99;98866.78;67679;1280;1016863;-74
2023/12/27 02:57:53;;;;;;;;;;;;;;;10.69;57.41;98875.85;67652;1280;1016288;-65
2023/12/27 03:00:56;;;;;;;;;;;;;;;10.69;57.35;98874.95;67636;1280;1016121;-74
2023/12/27 03:03:59;;;;;;;;;;;;;;;10.78;56.90;98879.83;67655;1280;1016441;-71
2023/12/27 03:07:01;;;;;;;;;;;;;;;10.73;56.90;98895.70;67619;1280;1018935;-70
2023/12/27 03:10:04;;;;;;;;;;;;;;;10.82;57.26;98896.56;67612;1280;1018487;-69
2023/12/27 03:13:07;;;;;;;;;;;;;;;10.81;57.50;98893.65;67661;1280;1016237;-69
2023/12/27 03:16:10;;;;;;;;;;;;;;;10.92;57.38;98902.25;67640;1280;1016578;-72
2023/12/27 03:19:12;;;;;;;;;;;;;;;10.91;57.46;98908.10;67609;1280;1016005;-67
2023/12/27 03:22:15;;;;;;;;;;;;;;;10.98;56.96;98901.73;67649;1280;1016428;-72
2023/12/27 03:25:18;;;;;;;;;;;;;;;10.96;56.70;98914.61;67655;1280;1016120;-71
2023/12/27 03:28:20;;;;;;;;;;;;;;;11.04;56.34;98911.30;67621;1280;1016497;-71
2023/12/27 03:31:28;;;;;;;;;;;;;;;11.05;55.91;98919.31;67653;1280;1016350;-69
2023/12/27 03:34:32;;;;;;;;;;;;;;;11.28;55.53;98921.17;67629;1279;1016485;-70
2023/12/27 03:37:35;;;;;;;;;;;;;;;11.23;55.37;98934.67;67597;1280;1018371;-67
2023/12/27 03:40:38;;;;;;;;;;;;;;;11.15;55.31;98932.66;67679;1280;1016905;-71
2023/12/27 03:43:40;;;;;;;;;;;;;;;11.04;55.63;98931.99;67589;1280;1016425;-66
2023/12/27 03:46:44;;;;;;;;;;;;;;;10.93;56.09;98943.83;67644;1280;1017078;-73
2023/12/27 03:49:47;;;;;;;;;;;;;;;11.04;55.59;98938.61;67591;1280;1016490;-69
2023/12/27 03:52:49;;;;;;;;;;;;;;;10.86;55.52;98961.55;67649;1280;1016430;-74
2023/12/27 03:55:52;;;;;;;;;;;;;;;10.88;55.38;98954.27;67643;1280;1016408;-73
2023/12/27 03:58:55;;;;;;;;;;;;;;;10.88;55.20;98960.72;67605;1280;1016456;-63
2023/12/27 04:01:57;;;;;;;;;;;;;;;10.81;54.52;98973.93;67628;1280;1016091;-73
2023/12/27 04:05:00;;;;;;;;;;;;;;;10.79;54.81;98982.64;67649;1280;1016514;-70
2023/12/27 04:08:03;;;;;;;;;;;;;;;10.79;54.48;98990.00;67612;1280;1016470;-67
2023/12/27 04:11:05;;;;;;;;;;;;;;;10.80;54.20;98988.01;67631;1280;1016196;-69
2023/12/27 04:14:08;;;;;;;;;;;;;;;10.65;54.54;98992.17;67631;1280;1016449;-68
2023/12/27 04:17:11;;;;;;;;;;;;;;;10.47;54.61;98992.86;67614;1280;1016146;-66
2023/12/27 04:20:13;;;;;;;;;;;;;;;10.51;53.94;98990.54;67654;1280;1016005;-68
2023/12/27 04:23:16;;;;;;;;;;;;;;;10.39;53.63;99001.70;67637;1280;1016485;-72
2023/12/27 04:26:19;;;;;;;;;;;;;;;10.52;53.31;99004.12;67568;1280;1016508;-70
2023/12/27 04:29:22;;;;;;;;;;;;;;;10.49;52.97;99000.11;67608;1280;1016360;-73
2023/12/27 04:32:24;;;;;;;;;;;;;;;10.50;52.77;99003.02;67611;1280;1016741;-71
2023/12/27 04:35:27;;;;;;;;;;;;;;;10.46;52.23;99005.89;67604;1280;1016352;-73
2023/12/27 04:38:30;;;;;;;;;;;;;;;10.39;52.04;99007.84;67618;1280;1018767;-75
2023/12/27 04:41:33;;;;;;;;;;;;;;;10.43;51.82;99009.88;67604;1280;1018340;-67
2023/12/27 04:44:36;;;;;;;;;;;;;;;10.39;51.64;99013.81;67641;1280;1018734;-71
2023/12/27 04:47:39;;;;;;;;;;;;;;;10.36;51.43;99010.65;67619;1280;1016500;-74
2023/12/27 04:50:42;;;;;;;;;;;;;;;10.29;51.30;99017.63;67623;1280;1016461;-65
2023/12/27 04:53:44;;;;;;;;;;;;;;;10.23;51.23;99022.36;67622;1280;1016494;-69
2023/12/27 04:56:47;;;;;;;;;;;;;;;10.21;50.81;99028.89;67643;1280;1016670;-74
2023/12/27 04:59:50;;;;;;;;;;;;;;;10.19;50.59;99042.13;67669;1280;1016564;-72
2023/12/27 05:02:53;;;;;;;;;;;;;;;10.10;50.65;99040.38;67672;1280;1016444;-74
2023/12/27 05:05:56;;;;;;;;;;;;;;;10.12;50.62;99042.87;67615;1280;1016494;-69
2023/12/27 05:09:03;;;;;;;;;;;;;;;10.13;50.66;99048.59;67670;1280;1016499;-70
2023/12/27 05:12:06;;;;;;;;;;;;;;;10.16;50.71;99053.86;67663;1280;1016186;-68
2023/12/27 05:15:09;;;;;;;;;;;;;;;10.17;51.15;99061.13;67630;1280;1016437;-67
2023/12/27 05:18:11;;;;;;;;;;;;;;;10.14;51.92;99064.10;67591;1280;1016314;-67
2023/12/27 05:21:14;;;;;;;;;;;;;;;9.99;52.59;99077.46;67645;1280;1016421;-67
2023/12/27 05:24:17;;;;;;;;;;;;;;;10.11;52.64;99082.06;67634;1280;1016274;-68
2023/12/27 05:27:20;;;;;;;;;;;;;;;10.07;53.30;99085.98;67643;1280;1016239;-67
2023/12/27 05:30:23;;;;;;;;;;;;;;;10.30;52.97;99099.60;67592;1280;1016213;-68
2023/12/27 05:33:25;;;;;;;;;;;;;;;10.09;54.03;99099.69;67591;1280;1018990;-72
2023/12/27 05:36:28;;;;;;;;;;;;;;;9.98;54.57;99103.03;67625;1280;1016401;-71
2023/12/27 05:39:31;;;;;;;;;;;;;;;9.89;54.82;99111.38;67646;1280;1016462;-69
2023/12/27 05:42:33;;;;;;;;;;;;;;;9.86;54.61;99110.34;67604;1280;1016744;-68
2023/12/27 05:45:36;;;;;;;;;;;;;;;9.82;54.52;99119.48;67672;1280;1016565;-72
2023/12/27 05:48:39;;;;;;;;;;;;;;;9.87;54.09;99130.35;67668;1280;1017851;-65
2023/12/27 05:51:42;;;;;;;;;;;;;;;10.07;53.44;99137.83;67602;1281;1016223;-69
2023/12/27 05:54:44;;;;;;;;;;;;;;;10.04;53.74;99146.73;67628;1280;1016502;-67
2023/12/27 05:57:47;;;;;;;;;;;;;;;10.18;53.77;99143.00;67643;1280;1016534;-65
2023/12/27 06:00:50;;;;;;;;;;;;;;;10.23;53.75;99151.86;67635;1280;1016471;-70
2023/12/27 06:03:52;;;;;;;;;;;;;;;10.09;54.44;99147.17;67654;1280;1016402;-72
2023/12/27 06:06:55;;;;;;;;;;;;;;;10.06;54.51;99148.02;67650;1280;1016432;-71
2023/12/27 06:09:58;;;;;;;;;;;;;;;9.96;55.40;99152.93;67620;1280;1015846;-70
2023/12/27 06:13:00;;;;;;;;;;;;;;;10.08;54.87;99151.79;67644;1280;1016498;-69
2023/12/27 06:16:03;;;;;;;;;;;;;;;9.98;55.33;99149.71;67649;1280;1016455;-64
2023/12/27 06:19:06;;;;;;;;;;;;;;;9.78;56.14;99153.52;67646;1280;1016404;-71
2023/12/27 06:22:09;;;;;;;;;;;;;;;9.84;55.78;99155.50;67686;1280;1016131;-72
2023/12/27 06:25:11;;;;;;;;;;;;;;;9.88;55.53;99160.91;67667;1280;1015878;-68
2023/12/27 06:28:14;;;;;;;;;;;;;;;9.78;55.48;99170.30;67630;1280;1016491;-69
2023/12/27 06:31:16;;;;;;;;;;;;;;;9.78;55.47;99170.82;67666;1280;1016633;-70
2023/12/27 06:34:19;;;;;;;;;;;;;;;9.79;55.22;99173.90;67682;1280;1016465;-66
2023/12/27 06:37:22;;;;;;;;;;;;;;;9.88;54.53;99181.49;67621;1280;1016272;-72
2023/12/27 06:40:25;;;;;;;;;;;;;;;10.00;53.67;99182.77;67681;1280;1016555;-67
2023/12/27 06:43:27;;;;;;;;;;;;;;;9.81;54.26;99191.61;67678;1280;1016364;-74
2023/12/27 06:46:30;;;;;;;;;;;;;;;9.72;54.64;99204.51;67640;1280;1016429;-67
2023/12/27 06:49:33;;;;;;;;;;;;;;;9.73;54.34;99214.91;67653;1280;1016350;-63
2023/12/27 06:52:36;;;;;;;;;;;;;;;9.78;54.48;99225.31;67712;1280;1016027;-70
2023/12/27 06:55:38;;;;;;;;;;;;;;;9.74;54.71;99230.07;67638;1280;1018194;-74
2023/12/27 06:58:41;;;;;;;;;;;;;;;9.76;54.40;99234.33;67671;1280;1016527;-73
2023/12/27 07:01:44;;;;;;;;;;;;;;;9.83;54.72;99237.11;67650;1280;1016410;-70
2023/12/27 07:04:46;;;;;;;;;;;;;;;9.90;54.40;99244.25;67659;1280;1016003;-68
2023/12/27 07:07:49;;;;;;;;;;;;;;;9.87;54.26;99245.81;67688;1280;1016270;-72
2023/12/27 07:10:52;;;;;;;;;;;;;;;9.88;54.44;99250.84;67681;1280;1016490;-67
2023/12/27 07:13:55;;;;;;;;;;;;;;;9.90;54.18;99256.14;67655;1280;1016628;-71
2023/12/27 07:16:58;;;;;;;;;;;;;;;9.91;54.65;99260.13;67688;1280;1019383;-73
2023/12/27 07:20:00;;;;;;;;;;;;;;;9.94;54.54;99269.38;67624;1280;1018520;-68
2023/12/27 07:23:03;;;;;;;;;;;;;;;9.89;54.58;99271.19;67640;1280;1016507;-70
2023/12/27 07:26:06;;;;;;;;;;;;;;;10.01;54.63;99264.33;67666;1280;1016391;-68
2023/12/27 07:29:08;;;;;;;;;;;;;;;10.03;54.68;99265.46;67625;1280;1018567;-72
2023/12/27 07:32:11;;;;;;;;;;;;;;;9.90;54.62;99274.67;67645;1280;1016559;-74
2023/12/27 07:35:14;;;;;;;;;;;;;;;9.93;55.04;99278.68;67655;1280;1016282;-74
2023/12/27 07:38:17;;;;;;;;;;;;;;;9.90;55.09;99287.41;67627;1280;1016154;-71
2023/12/27 07:41:19;;;;;;;;;;;;;;;10.02;54.72;99293.25;67661;1280;1016265;-74
2023/12/27 07:44:22;;;;;;;;;;;;;;;10.03;54.71;99300.92;67654;1280;1016345;-66
2023/12/27 07:47:25;;;;;;;;;;;;;;;10.09;54.63;99311.81;67627;1280;1016314;-69
2023/12/27 07:50:28;;;;;;;;;;;;;;;10.12;54.24;99311.10;67633;1280;1016399;-65
2023/12/27 07:53:30;;;;;;;;;;;;;;;10.13;53.94;99326.43;67637;1280;1017201;-73
2023/12/27 07:56:34;;;;;;;;;;;;;;;10.09;54.39;99329.77;67591;1280;1016137;-68
2023/12/27 07:59:37;;;;;;;;;;;;;;;10.00;54.39;99346.98;67618;1281;1016531;-69
2023/12/27 08:02:40;;;;;;;;;;;;;;;10.01;54.10;99350.98;67627;1281;1016525;-69
2023/12/27 08:05:42;;;;;;;;;;;;;;;10.10;53.87;99355.77;67627;1280;1016242;-74
2023/12/27 08:08:46;;;;;;;;;;;;;;;10.03;53.26;99364.29;67609;1280;1019979;-73
2023/12/27 08:11:48;;;;;;;;;;;;;;;9.90;54.37;99373.38;67643;1280;1016245;-74
2023/12/27 08:14:51;;;;;;;;;;;;;;;9.97;53.96;99375.30;67632;1280;1016043;-73
2023/12/27 08:17:54;;;;;;;;;;;;;;;9.96;54.16;99395.95;67672;1280;1016702;-72
2023/12/27 08:20:57;;;;;;;;;;;;;;;10.02;53.30;99391.80;67638;1280;1016395;-69
2023/12/27 08:24:00;;;;;;;;;;;;;;;9.99;53.17;99400.86;67677;1281;1016916;-70
2023/12/27 08:27:03;;;;;;;;;;;;;;;10.12;52.86;99397.10;67604;1281;1016495;-73
2023/12/27 08:30:06;;;;;;;;;;;;;;;10.31;53.16;99402.78;67641;1281;1016356;-63
2023/12/27 08:33:09;;;;;;;;;;;;;;;10.22;52.48;99415.80;67595;1281;1016474;-69
2023/12/27 08:36:12;;;;;;;;;;;;;;;10.26;52.62;99411.92;67640;1281;1016488;-69
2023/12/27 08:39:14;;;;;;;;;;;;;;;10.08;51.88;99419.48;67687;1281;1016484;-71
2023/12/27 08:42:17;;;;;;;;;;;;;;;10.23;51.89;99415.75;67694;1281;1016526;-68
2023/12/27 08:45:20;;;;;;;;;;;;;;;10.39;51.08;99424.44;67619;1281;1016081;-71
2023/12/27 08:48:22;;;;;;;;;;;;;;;10.46;50.91;99418.64;67665;1281;1019258;-72
2023/12/27 08:51:25;;;;;;;;;;;;;;;10.55;51.07;99425.91;67624;1281;1018875;-74
2023/12/27 08:54:28;;;;;;;;;;;;;;;10.59;50.96;99428.14;67620;1281;1018077;-69
2023/12/27 08:57:30;;;;;;;;;;;;;;;10.63;51.33;99428.81;67667;1281;1016481;-69
2023/12/27 09:00:33;;;;;;;;;;;;;;;10.62;50.53;99436.89;67639;1281;1016522;-65
2023/12/27 09:03:36;;;;;;;;;;;;;;;10.69;50.49;99442.49;67608;1281;1016525;-69
2023/12/27 09:06:38;;;;;;;;;;;;;;;10.68;50.20;99448.16;67656;1281;1016531;-70
2023/12/27 09:09:41;;;;;;;;;;;;;;;10.67;49.90;99460.09;67668;1281;1016511;-73
2023/12/27 09:12:44;;;;;;;;;;;;;;;10.82;50.52;99453.56;67614;1281;1016397;-70
2023/12/27 09:15:48;;;;;;;;;;;;;;;10.76;50.13;99456.45;67611;1281;1016458;-66
2023/12/27 09:18:51;;;;;;;;;;;;;;;10.54;50.90;99465.11;67651;1281;1016068;-71
2023/12/27 09:21:53;;;;;;;;;;;;;;;10.58;50.62;99466.46;65162;1280;5323203;-70
2023/12/27 09:24:59;;;;;;;;;;;;;;;10.42;50.47;99460.96;67653;1281;1016300;-72
2023/12/27 09:28:02;;;;;;;;;;;;;;;10.46;50.95;99459.76;67610;1281;1016437;-71
2023/12/27 09:31:04;;;;;;;;;;;;;;;10.54;51.43;99469.14;67667;1281;1017822;-74
2023/12/27 09:34:07;;;;;;;;;;;;;;;10.64;50.90;99462.16;67647;1281;1016504;-65
2023/12/27 09:37:10;;;;;;;;;;;;;;;10.81;50.53;99456.92;67627;1281;1016462;-73
2023/12/27 09:40:12;;;;;;;;;;;;;;;10.76;49.98;99457.16;67662;1281;1016464;-70
2023/12/27 09:43:15;;;;;;;;;;;;;;;10.50;50.15;99461.81;67677;1281;1016344;-67
2023/12/27 09:46:18;;;;;;;;;;;;;;;10.51;50.61;99455.65;67608;1281;1016477;-72
2023/12/27 09:49:20;;;;;;;;;;;;;;;10.72;51.25;99451.75;67665;1281;1016164;-64
2023/12/27 09:52:23;;;;;;;;;;;;;;;10.56;50.57;99461.89;67669;1280;1017252;-74
2023/12/27 09:55:26;;;;;;;;;;;;;;;10.47;50.59;99457.94;67636;1280;1016465;-68
2023/12/27 09:58:29;;;;;;;;;;;;;;;10.66;50.31;99454.90;67684;1280;1016412;-69
2023/12/27 10:01:32;;;;;;;;;;;;;;;10.72;49.66;99452.47;67690;1280;1016882;-69
2023/12/27 10:04:35;;;;;;;;;;;;;;;10.64;50.23;99461.64;67672;1280;1016491;-72
2023/12/27 10:07:39;;;;;;;;;;;;;;;10.80;49.83;99453.80;67626;1280;1018727;-69
2023/12/27 10:10:41;;;;;;;;;;;;;;;10.74;49.74;99478.26;67613;1281;1016373;-74
2023/12/27 10:13:44;;;;;;;;;;;;;;;10.69;49.48;99466.45;67645;1280;1016507;-70
2023/12/27 10:16:47;;;;;;;;;;;;;;;10.96;49.42;99458.60;67701;1281;1016348;-69
2023/12/27 10:19:50;;;;;;;;;;;;;;;10.96;49.61;99464.39;67668;1280;1016478;-69
2023/12/27 10:22:52;;;;;;;;;;;;;;;10.87;49.09;99470.27;67649;1280;1016399;-66
2023/12/27 10:25:55;;;;;;;;;;;;;;;10.99;48.74;99464.75;67690;1280;1016422;-71
2023/12/27 10:28:59;;;;;;;;;;;;;;;11.14;48.83;99459.71;67698;1280;1015985;-70
2023/12/27 10:32:02;;;;;;;;;;;;;;;11.20;48.23;99466.60;67637;1280;1016471;-65
2023/12/27 10:35:05;;;;;;;;;;;;;;;11.27;48.40;99448.73;67685;1280;1017581;-70
2023/12/27 10:38:08;;;;;;;;;;;;;;;11.32;48.38;99454.77;67669;1281;1016229;-72
2023/12/27 10:41:10;;;;;;;;;;;;;;;11.31;48.26;99464.27;67628;1280;1016480;-64
2023/12/27 10:44:17;;;;;;;;;;;;;;;11.22;47.66;99467.52;67708;1280;1016243;-65
2023/12/27 10:47:20;;;;;;;;;;;;;;;11.07;47.83;99465.88;67668;1280;1016406;-71
2023/12/27 10:50:23;;;;;;;;;;;;;;;11.22;48.34;99453.88;67656;1280;1016448;-69
2023/12/27 10:53:26;;;;;;;;;;;;;;;11.02;47.96;99464.40;67642;1280;1016478;-70
2023/12/27 10:56:29;;;;;;;;;;;;;;;10.99;48.16;99461.57;67680;1280;1016514;-71
2023/12/27 10:59:31;;;;;;;;;;;;;;;10.96;47.99;99467.55;67705;1280;1016417;-67
2023/12/27 11:02:36;;;;;;;;;;;;;;;10.86;47.61;99482.89;67676;1280;1016502;-71
2023/12/27 11:05:38;;;;;;;;;;;;;;;10.78;48.33;99468.95;67634;1280;1016428;-72
2023/12/27 11:08:41;;;;;;;;;;;;;;;10.63;48.80;99462.86;67689;1280;1016426;-73
2023/12/27 11:11:44;;;;;;;;;;;;;;;10.95;48.57;99463.04;67659;1280;1016400;-72
2023/12/27 11:14:47;;;;;;;;;;;;;;;11.40;48.28;99456.75;67654;1280;1016486;-73
2023/12/27 11:17:50;;;;;;;;;;;;;;;11.66;47.74;99453.77;67654;1281;1015993;-74
2023/12/27 11:20:54;;;;;;;;;;;;;;;11.63;48.11;99456.40;67648;1280;1016418;-71
2023/12/27 11:23:57;;;;;;;;;;;;;;;11.85;48.03;99447.34;67706;1280;1016250;-75
2023/12/27 11:27:00;;;;;;;;;;;;;;;11.43;47.04;99477.80;67633;1280;1016420;-70
2023/12/27 11:30:04;;;;;;;;;;;;;;;11.26;48.25;99468.38;67691;1280;1016524;-67
2023/12/27 11:33:06;;;;;;;;;;;;;;;11.23;48.42;99470.48;67617;1280;1019368;-71
2023/12/27 11:36:09;;;;;;;;;;;;;;;11.32;47.74;99471.59;67643;1280;1017970;-74
2023/12/27 11:39:12;;;;;;;;;;;;;;;11.34;47.34;99468.86;67687;1280;1016477;-74
2023/12/27 11:42:14;;;;;;;;;;;;;;;11.33;47.02;99475.17;67637;1280;1016246;-73
2023/12/27 11:45:17;;;;;;;;;;;;;;;11.37;47.77;99470.98;67661;1280;1018470;-67
2023/12/27 11:48:20;;;;;;;;;;;;;;;11.33;47.15;99480.13;67655;1280;1016529;-69
2023/12/27 11:51:23;;;;;;;;;;;;;;;11.64;47.45;99468.41;67659;1280;1016534;-71
2023/12/27 11:54:26;;;;;;;;;;;;;;;11.96;46.87;99471.74;67689;1280;1016394;-67
2023/12/27 11:57:28;;;;;;;;;;;;;;;11.73;47.08;99471.98;67677;1280;1016440;-70
2023/12/27 12:00:31;;;;;;;;;;;;;;;11.96;47.53;99473.17;67629;1280;1018164;-70
2023/12/27 12:03:34;;;;;;;;;;;;;;;12.05;46.83;99464.41;67693;1280;1016479;-73
2023/12/27 12:06:37;;;;;;;;;;;;;;;12.10;46.47;99462.77;67656;1280;1017038;-66
2023/12/27 12:09:39;;;;;;;;;;;;;;;11.88;46.17;99457.52;67611;1280;1016276;-72
2023/12/27 12:12:42;;;;;;;;;;;;;;;11.73;46.37;99459.89;67655;1280;1016368;-73
2023/12/27 12:15:45;;;;;;;;;;;;;;;11.78;46.66;99460.65;67696;1280;1016509;-72
2023/12/27 12:18:47;;;;;;;;;;;;;;;11.80;46.44;99456.66;67626;1280;1016447;-68
2023/12/27 12:21:51;;;;;;;;;;;;;;;11.82;46.57;99459.17;67698;1280;1016308;-68
2023/12/27 12:24:55;;;;;;;;;;;;;;;11.59;46.60;99459.79;67683;1280;1016467;-69
2023/12/27 12:27:59;;;;;;;;;;;;;;;11.57;47.13;99458.48;67652;1280;1016251;-71
2023/12/27 12:31:02;;;;;;;;;;;;;;;11.58;47.04;99457.37;67640;1280;1016914;-74
2023/12/27 12:34:04;;;;;;;;;;;;;;;11.74;47.21;99442.30;67666;1280;1016374;-73
2023/12/27 12:37:07;;;;;;;;;;;;;;;11.77;47.22;99442.14;67638;1281;1019101;-73
2023/12/27 12:40:10;;;;;;;;;;;;;;;11.94;46.73;99442.25;67673;1280;1016445;-69
2023/12/27 12:43:13;;;;;;;;;;;;;;;12.04;46.90;99441.55;67687;1280;1016459;-71
2023/12/27 12:46:15;;;;;;;;;;;;;;;12.19;45.88;99443.28;67668;1280;1017387;-68
2023/12/27 12:49:18;;;;;;;;;;;;;;;12.39;46.07;99433.94;67653;1280;1016218;-68
2023/12/27 12:52:20;;;;;;;;;;;;;;;12.30;46.13;99434.27;67698;1280;1016196;-72
2023/12/27 12:55:28;;;;;;;;;;;;;;;12.21;45.91;99436.88;67670;1280;1016052;-69
2023/12/27 12:58:31;;;;;;;;;;;;;;;12.23;46.13;99430.95;67671;1280;1016330;-73
2023/12/27 13:01:34;;;;;;;;;;;;;;;12.23;46.05;99434.17;67630;1280;1016367;-74
2023/12/27 13:04:38;;;;;;;;;;;;;;;12.18;45.79;99438.79;67652;1280;1016341;-72
2023/12/27 13:07:40;;;;;;;;;;;;;;;12.18;46.06;99439.46;67693;1280;1016461;-73
2023/12/27 13:10:44;;;;;;;;;;;;;;;12.10;45.78;99441.00;67604;1280;1016609;-71
2023/12/27 13:13:46;;;;;;;;;;;;;;;12.08;46.14;99433.59;67634;1281;1016507;-73
2023/12/27 13:16:49;;;;;;;;;;;;;;;12.02;46.31;99432.86;67665;1280;1018008;-66
2023/12/27 13:19:52;;;;;;;;;;;;;;;11.78;46.48;99430.67;67635;1280;1016036;-72
2023/12/27 13:22:55;;;;;;;;;;;;;;;11.89;46.48;99427.64;67676;1280;1018768;-70
2023/12/27 13:25:57;;;;;;;;;;;;;;;11.90;46.41;99429.17;67672;1280;1016138;-74
2023/12/27 13:29:00;;;;;;;;;;;;;;;11.87;46.18;99427.38;67638;1280;1016463;-71
2023/12/27 13:32:03;;;;;;;;;;;;;;;11.88;46.44;99420.35;67652;1280;1016374;-73
2023/12/27 13:35:06;;;;;;;;;;;;;;;11.98;46.51;99420.65;67623;1280;1016410;-71
2023/12/27 13:38:12;;;;;;;;;;;;;;;12.01;46.30;99421.74;67639;1280;1016426;-72
2023/12/27 13:41:15;;;;;;;;;;;;;;;12.03;45.97;99427.07;67702;1280;1017183;-71
2023/12/27 13:44:18;;;;;;;;;;;;;;;12.03;46.12;99429.70;67637;1280;1016226;-71
2023/12/27 13:47:20;;;;;;;;;;;;;;;11.83;46.20;99427.80;67644;1280;1016409;-73
2023/12/27 13:50:23;;;;;;;;;;;;;;;11.86;46.45;99430.58;67668;1280;1016493;-73
2023/12/27 13:53:26;;;;;;;;;;;;;;;11.74;46.96;99436.16;67648;1280;1016465;-71
2023/12/27 13:56:28;;;;;;;;;;;;;;;11.59;47.14;99440.84;67626;1281;1016462;-70
2023/12/27 13:59:31;;;;;;;;;;;;;;;11.30;46.56;99449.42;67689;1280;1016567;-73
2023/12/27 14:02:34;;;;;;;;;;;;;;;11.08;46.96;99452.19;67684;1280;1016478;-72
2023/12/27 14:05:38;;;;;;;;;;;;;;;11.20;47.00;99445.61;67653;1280;1016475;-72
2023/12/27 14:08:41;;;;;;;;;;;;;;;11.11;46.74;99446.26;67622;1280;1016348;-70
2023/12/27 14:11:44;;;;;;;;;;;;;;;11.09;46.88;99450.20;67696;1280;1016214;-71
2023/12/27 14:14:46;;;;;;;;;;;;;;;10.75;47.34;99458.45;67647;1280;1016264;-74
2023/12/27 14:17:49;;;;;;;;;;;;;;;10.67;47.42;99454.29;67640;1280;1019501;-73
2023/12/27 14:20:52;;;;;;;;;;;;;;;10.73;47.79;99445.23;67699;1280;1016438;-73
2023/12/27 14:23:55;;;;;;;;;;;;;;;10.67;47.58;99443.48;67700;1280;1018914;-72
2023/12/27 14:26:58;;;;;;;;;;;;;;;10.70;47.53;99440.67;67673;1280;1019988;-73
2023/12/27 14:30:01;;;;;;;;;;;;;;;10.70;47.41;99437.18;67651;1280;1016438;-70
2023/12/27 14:33:04;;;;;;;;;;;;;;;10.70;47.56;99436.66;67628;1280;1016442;-73
2023/12/27 14:36:06;;;;;;;;;;;;;;;10.72;47.69;99434.81;67641;1280;1016763;-69
2023/12/27 14:39:11;;;;;;;;;;;;;;;10.73;47.65;99436.17;67656;1280;1016471;-71
2023/12/27 14:42:15;;;;;;;;;;;;;;;10.70;47.61;99438.42;67671;1280;1016170;-69
2023/12/27 14:45:17;;;;;;;;;;;;;;;10.66;47.78;99439.84;67632;1280;1015990;-70
2023/12/27 14:48:21;;;;;;;;;;;;;;;10.50;48.09;99444.33;67662;1280;1016114;-74
2023/12/27 14:51:23;;;;;;;;;;;;;;;10.53;47.74;99450.45;67632;1280;1016459;-72
2023/12/27 14:54:26;;;;;;;;;;;;;;;10.56;47.88;99451.36;67698;1280;1017192;-73
2023/12/27 14:57:29;;;;;;;;;;;;;;;10.48;47.95;99461.89;67684;1280;1016373;-69
2023/12/27 15:00:31;;;;;;;;;;;;;;;10.28;47.91;99462.72;67626;1280;1016400;-67
2023/12/27 15:03:34;;;;;;;;;;;;;;;10.30;48.26;99463.16;67653;1280;1016427;-73
2023/12/27 15:06:37;;;;;;;;;;;;;;;10.22;48.00;99466.33;67646;1280;1016342;-71
2023/12/27 15:09:40;;;;;;;;;;;;;;;10.19;48.24;99465.05;67601;1280;1016490;-71
2023/12/27 15:12:43;;;;;;;;;;;;;;;10.17;48.45;99465.88;67619;1280;1019212;-73
2023/12/27 15:15:46;;;;;;;;;;;;;;;10.25;48.07;99461.27;67601;1280;1016524;-74
2023/12/27 15:18:49;;;;;;;;;;;;;;;10.14;47.82;99458.51;67652;1280;1016461;-66
2023/12/27 15:21:52;;;;;;;;;;;;;;;9.87;48.52;99455.75;67653;1280;1016780;-69
2023/12/27 15:24:55;;;;;;;;;;;;;;;9.66;48.88;99458.85;67672;1280;1016520;-73
2023/12/27 15:27:57;;;;;;;;;;;;;;;9.60;49.47;99462.10;67642;1280;1016393;-73
2023/12/27 15:31:00;;;;;;;;;;;;;;;9.68;49.52;99460.00;67605;1280;1016802;-67
2023/12/27 15:34:03;;;;;;;;;;;;;;;9.74;49.57;99457.27;67644;1280;1018225;-70
2023/12/27 15:37:06;;;;;;;;;;;;;;;9.74;49.41;99456.06;67629;1280;1016413;-73